Seymour Johnson AFB, North Carolina
Current Conditions -  °F | °C
As of 10:58 PM on Tuesday 21 Oct 2014 (Local Time) from KGSB Reporting Station
Few Clouds Few Clouds  
Wind Chill: 64°   Ceiling: Unl
Heat Index: 64°   Visibility: 10mi
Dew Point: 53°   Wind: 7mph
Humidity: 67%   Direction: 320°NW
Pressure: 29.88"   Gusts: NA
Location:  35.3407°N, 77.9695°W
Report Text: KGSB 220258Z AUTO 32006KT 10SM FEW085 18/11 A2988 RMK AO2 SLP121 T01750114 52012 $
Loading
Personal Weather Stations






























Interactive Weather Map
Tropical Storm Tracking
New forecast layout! Learn more

10-Day Weather Forecast

Advertisements
Track Severe Weather on mobile